sensor_id;sensor_type;location;lat;lon;timestamp;temperature;humidity
56336;DHT22;42241;53.510;10.170;2022-09-27T00:00:01;10.30;99.90
56336;DHT22;42241;53.510;10.170;2022-09-27T00:02:27;10.40;99.90
56336;DHT22;42241;53.510;10.170;2022-09-27T00:04:53;10.40;99.90
56336;DHT22;42241;53.510;10.170;2022-09-27T00:07:19;10.30;99.90
56336;DHT22;42241;53.510;10.170;2022-09-27T00:09:45;10.30;99.90
56336;DHT22;42241;53.510;10.170;2022-09-27T00:12:11;10.30;99.90
56336;DHT22;42241;53.510;10.170;2022-09-27T00:14:36;10.30;99.90
56336;DHT22;42241;53.510;10.170;2022-09-27T00:17:02;10.30;99.90
56336;DHT22;42241;53.510;10.170;2022-09-27T00:19:27;10.30;99.90
56336;DHT22;42241;53.510;10.170;2022-09-27T00:21:53;10.30;99.90
56336;DHT22;42241;53.510;10.170;2022-09-27T00:24:20;10.30;99.90
56336;DHT22;42241;53.510;10.170;2022-09-27T00:26:46;10.30;99.90
56336;DHT22;42241;53.510;10.170;2022-09-27T00:29:13;10.40;99.90
56336;DHT22;42241;53.510;10.170;2022-09-27T00:31:39;10.30;99.90
56336;DHT22;42241;53.510;10.170;2022-09-27T00:34:05;10.30;99.90
56336;DHT22;42241;53.510;10.170;2022-09-27T00:36:31;10.30;99.90
56336;DHT22;42241;53.510;10.170;2022-09-27T00:38:57;10.30;99.90
56336;DHT22;42241;53.510;10.170;2022-09-27T00:43:55;10.40;99.90
56336;DHT22;42241;53.510;10.170;2022-09-27T00:46:32;10.40;99.90
56336;DHT22;42241;53.510;10.170;2022-09-27T00:49:00;10.40;99.90
56336;DHT22;42241;53.510;10.170;2022-09-27T00:51:28;10.40;99.90
56336;DHT22;42241;53.510;10.170;2022-09-27T00:53:53;10.40;99.90
56336;DHT22;42241;53.510;10.170;2022-09-27T00:56:21;10.30;99.90
56336;DHT22;42241;53.510;10.170;2022-09-27T00:58:55;10.30;99.90
56336;DHT22;42241;53.510;10.170;2022-09-27T01:01:22;10.30;99.90
56336;DHT22;42241;53.510;10.170;2022-09-27T01:03:49;10.40;99.90
56336;DHT22;42241;53.510;10.170;2022-09-27T01:06:17;10.30;99.90
56336;DHT22;42241;53.510;10.170;2022-09-27T01:08:48;10.30;99.90
56336;DHT22;42241;53.510;10.170;2022-09-27T01:22:01;10.30;99.90
56336;DHT22;42241;53.510;10.170;2022-09-27T01:24:38;10.30;99.90
56336;DHT22;42241;53.510;10.170;2022-09-27T01:30:10;10.30;99.90
56336;DHT22;42241;53.510;10.170;2022-09-27T01:32:47;10.30;99.90
56336;DHT22;42241;53.510;10.170;2022-09-27T01:35:17;10.30;99.90
56336;DHT22;42241;53.510;10.170;2022-09-27T01:50:05;10.30;99.90
56336;DHT22;42241;53.510;10.170;2022-09-27T01:52:34;10.40;99.90
56336;DHT22;42241;53.510;10.170;2022-09-27T01:55:01;10.30;99.90
56336;DHT22;42241;53.510;10.170;2022-09-27T01:57:36;10.30;99.90
56336;DHT22;42241;53.510;10.170;2022-09-27T02:00:07;10.30;99.90
56336;DHT22;42241;53.510;10.170;2022-09-27T02:02:35;10.30;99.90
56336;DHT22;42241;53.510;10.170;2022-09-27T02:05:02;10.30;99.90
56336;DHT22;42241;53.510;10.170;2022-09-27T02:07:40;10.30;99.90
56336;DHT22;42241;53.510;10.170;2022-09-27T02:10:17;10.30;99.90
56336;DHT22;42241;53.510;10.170;2022-09-27T02:15:31;10.30;99.90
56336;DHT22;42241;53.510;10.170;2022-09-27T02:18:00;10.40;99.90
56336;DHT22;42241;53.510;10.170;2022-09-27T02:22:54;10.30;99.90
56336;DHT22;42241;53.510;10.170;2022-09-27T02:25:28;10.40;99.90
56336;DHT22;42241;53.510;10.170;2022-09-27T02:30:29;10.30;99.90
56336;DHT22;42241;53.510;10.170;2022-09-27T02:32:55;10.30;99.90
56336;DHT22;42241;53.510;10.170;2022-09-27T02:35:23;10.40;99.90
56336;DHT22;42241;53.510;10.170;2022-09-27T02:37:49;10.40;99.90
56336;DHT22;42241;53.510;10.170;2022-09-27T02:40:15;10.50;99.90
56336;DHT22;42241;53.510;10.170;2022-09-27T02:42:41;10.50;99.90
56336;DHT22;42241;53.510;10.170;2022-09-27T02:45:07;10.50;99.90
56336;DHT22;42241;53.510;10.170;2022-09-27T02:50:13;10.40;99.90
56336;DHT22;42241;53.510;10.170;2022-09-27T02:55:17;10.40;99.90
56336;DHT22;42241;53.510;10.170;2022-09-27T03:00:18;10.50;99.90
56336;DHT22;42241;53.510;10.170;2022-09-27T03:02:48;10.40;99.90
56336;DHT22;42241;53.510;10.170;2022-09-27T03:05:34;10.40;99.90
56336;DHT22;42241;53.510;10.170;2022-09-27T03:08:02;10.40;99.90
56336;DHT22;42241;53.510;10.170;2022-09-27T03:10:28;10.40;99.90
56336;DHT22;42241;53.510;10.170;2022-09-27T03:12:55;10.40;99.90
56336;DHT22;42241;53.510;10.170;2022-09-27T03:15:21;10.40;99.90
56336;DHT22;42241;53.510;10.170;2022-09-27T03:17:46;10.40;99.90
56336;DHT22;42241;53.510;10.170;2022-09-27T03:20:12;10.50;99.90
56336;DHT22;42241;53.510;10.170;2022-09-27T03:22:37;10.50;99.90
56336;DHT22;42241;53.510;10.170;2022-09-27T03:25:04;10.40;99.90
56336;DHT22;42241;53.510;10.170;2022-09-27T03:27:29;10.40;99.90
56336;DHT22;42241;53.510;10.170;2022-09-27T03:29:55;10.50;99.90
56336;DHT22;42241;53.510;10.170;2022-09-27T03:32:22;10.50;99.90
56336;DHT22;42241;53.510;10.170;2022-09-27T03:34:47;10.50;99.90
56336;DHT22;42241;53.510;10.170;2022-09-27T03:37:15;10.50;99.90
56336;DHT22;42241;53.510;10.170;2022-09-27T03:39:41;10.50;99.90
56336;DHT22;42241;53.510;10.170;2022-09-27T03:42:06;10.50;99.90
56336;DHT22;42241;53.510;10.170;2022-09-27T03:44:32;10.60;99.90
56336;DHT22;42241;53.510;10.170;2022-09-27T03:46:57;10.60;99.90
56336;DHT22;42241;53.510;10.170;2022-09-27T03:49:23;10.50;99.90
56336;DHT22;42241;53.510;10.170;2022-09-27T03:51:49;10.50;99.90
56336;DHT22;42241;53.510;10.170;2022-09-27T03:54:15;10.50;99.90
56336;DHT22;42241;53.510;10.170;2022-09-27T03:56:40;10.50;99.90
56336;DHT22;42241;53.510;10.170;2022-09-27T03:59:06;10.50;99.90
56336;DHT22;42241;53.510;10.170;2022-09-27T04:01:31;10.50;99.90
56336;DHT22;42241;53.510;10.170;2022-09-27T04:03:59;10.60;99.90
56336;DHT22;42241;53.510;10.170;2022-09-27T04:06:25;10.50;99.90
56336;DHT22;42241;53.510;10.170;2022-09-27T04:08:51;10.50;99.90
56336;DHT22;42241;53.510;10.170;2022-09-27T04:11:17;10.50;99.90
56336;DHT22;42241;53.510;10.170;2022-09-27T04:13:42;10.60;99.90
56336;DHT22;42241;53.510;10.170;2022-09-27T04:16:08;10.60;99.90
56336;DHT22;42241;53.510;10.170;2022-09-27T04:18:34;10.60;99.90
56336;DHT22;42241;53.510;10.170;2022-09-27T04:20:59;10.60;99.90
56336;DHT22;42241;53.510;10.170;2022-09-27T04:29:33;10.50;99.90
56336;DHT22;42241;53.510;10.170;2022-09-27T04:31:59;10.60;99.90
56336;DHT22;42241;53.510;10.170;2022-09-27T04:34:24;10.50;99.90
56336;DHT22;42241;53.510;10.170;2022-09-27T04:37:10;10.50;99.90
56336;DHT22;42241;53.510;10.170;2022-09-27T04:39:35;10.50;99.90
56336;DHT22;42241;53.510;10.170;2022-09-27T04:42:01;10.50;99.90
56336;DHT22;42241;53.510;10.170;2022-09-27T04:44:27;10.50;99.90
56336;DHT22;42241;53.510;10.170;2022-09-27T04:46:53;10.50;99.90
56336;DHT22;42241;53.510;10.170;2022-09-27T04:49:18;10.60;99.90
56336;DHT22;42241;53.510;10.170;2022-09-27T04:51:44;10.60;99.90
56336;DHT22;42241;53.510;10.170;2022-09-27T04:54:10;10.60;99.90
56336;DHT22;42241;53.510;10.170;2022-09-27T04:56:35;10.50;99.90
56336;DHT22;42241;53.510;10.170;2022-09-27T04:59:01;10.50;99.90
56336;DHT22;42241;53.510;10.170;2022-09-27T05:04:30;10.50;99.90
56336;DHT22;42241;53.510;10.170;2022-09-27T05:06:56;10.50;99.90
56336;DHT22;42241;53.510;10.170;2022-09-27T05:09:21;10.50;99.90
56336;DHT22;42241;53.510;10.170;2022-09-27T05:11:47;10.50;99.90
56336;DHT22;42241;53.510;10.170;2022-09-27T05:14:12;10.50;99.90
56336;DHT22;42241;53.510;10.170;2022-09-27T05:16:38;10.50;99.90
56336;DHT22;42241;53.510;10.170;2022-09-27T05:19:04;10.50;99.90
56336;DHT22;42241;53.510;10.170;2022-09-27T05:21:29;10.50;99.90
56336;DHT22;42241;53.510;10.170;2022-09-27T05:23:56;10.60;99.90
56336;DHT22;42241;53.510;10.170;2022-09-27T05:26:22;10.70;99.90
56336;DHT22;42241;53.510;10.170;2022-09-27T05:28:48;10.60;99.90
56336;DHT22;42241;53.510;10.170;2022-09-27T05:31:13;10.50;99.90
56336;DHT22;42241;53.510;10.170;2022-09-27T05:33:39;10.60;99.90
56336;DHT22;42241;53.510;10.170;2022-09-27T05:36:05;10.70;99.90
56336;DHT22;42241;53.510;10.170;2022-09-27T05:38:30;10.70;99.90
56336;DHT22;42241;53.510;10.170;2022-09-27T05:40:56;10.70;99.90
56336;DHT22;42241;53.510;10.170;2022-09-27T05:43:21;10.70;99.90
56336;DHT22;42241;53.510;10.170;2022-09-27T05:45:48;10.60;99.90
56336;DHT22;42241;53.510;10.170;2022-09-27T05:48:13;10.60;99.90
56336;DHT22;42241;53.510;10.170;2022-09-27T05:50:39;10.60;99.90
56336;DHT22;42241;53.510;10.170;2022-09-27T05:53:05;10.60;99.90
56336;DHT22;42241;53.510;10.170;2022-09-27T05:55:30;10.70;99.90
56336;DHT22;42241;53.510;10.170;2022-09-27T05:58:00;10.70;99.90
56336;DHT22;42241;53.510;10.170;2022-09-27T06:00:26;10.70;99.90
56336;DHT22;42241;53.510;10.170;2022-09-27T06:02:55;10.70;99.90
56336;DHT22;42241;53.510;10.170;2022-09-27T06:05:21;10.80;99.90
56336;DHT22;42241;53.510;10.170;2022-09-27T06:07:47;10.80;99.90
56336;DHT22;42241;53.510;10.170;2022-09-27T06:10:14;10.80;99.90
56336;DHT22;42241;53.510;10.170;2022-09-27T06:12:49;10.80;99.90
56336;DHT22;42241;53.510;10.170;2022-09-27T06:15:15;10.80;99.90
56336;DHT22;42241;53.510;10.170;2022-09-27T06:17:40;10.90;99.90
56336;DHT22;42241;53.510;10.170;2022-09-27T06:20:06;10.90;99.90
56336;DHT22;42241;53.510;10.170;2022-09-27T06:22:33;11.00;99.90
56336;DHT22;42241;53.510;10.170;2022-09-27T06:24:58;10.90;99.90
56336;DHT22;42241;53.510;10.170;2022-09-27T06:27:24;10.90;99.90
56336;DHT22;42241;53.510;10.170;2022-09-27T06:29:50;10.90;99.90
56336;DHT22;42241;53.510;10.170;2022-09-27T06:32:16;10.90;99.90
56336;DHT22;42241;53.510;10.170;2022-09-27T06:34:41;10.90;99.90
56336;DHT22;42241;53.510;10.170;2022-09-27T06:37:07;10.90;99.90
56336;DHT22;42241;53.510;10.170;2022-09-27T06:39:33;11.00;99.90
56336;DHT22;42241;53.510;10.170;2022-09-27T06:41:59;11.00;99.90
56336;DHT22;42241;53.510;10.170;2022-09-27T06:44:24;11.00;99.90
56336;DHT22;42241;53.510;10.170;2022-09-27T06:46:51;11.00;99.90
56336;DHT22;42241;53.510;10.170;2022-09-27T06:49:17;11.00;99.90
56336;DHT22;42241;53.510;10.170;2022-09-27T06:51:43;11.00;99.90
56336;DHT22;42241;53.510;10.170;2022-09-27T06:54:09;11.00;99.90
56336;DHT22;42241;53.510;10.170;2022-09-27T06:56:34;11.00;99.90
56336;DHT22;42241;53.510;10.170;2022-09-27T06:59:00;11.00;99.90
56336;DHT22;42241;53.510;10.170;2022-09-27T07:01:44;11.00;99.90
56336;DHT22;42241;53.510;10.170;2022-09-27T07:04:10;10.90;99.90
56336;DHT22;42241;53.510;10.170;2022-09-27T07:06:36;10.90;99.90
56336;DHT22;42241;53.510;10.170;2022-09-27T07:09:02;10.90;99.90
56336;DHT22;42241;53.510;10.170;2022-09-27T07:11:27;10.90;99.90
56336;DHT22;42241;53.510;10.170;2022-09-27T07:13:53;11.00;99.90
56336;DHT22;42241;53.510;10.170;2022-09-27T07:16:20;11.00;99.90
56336;DHT22;42241;53.510;10.170;2022-09-27T07:18:46;11.00;99.90
56336;DHT22;42241;53.510;10.170;2022-09-27T07:21:12;11.00;99.90
56336;DHT22;42241;53.510;10.170;2022-09-27T07:23:40;11.00;99.90
56336;DHT22;42241;53.510;10.170;2022-09-27T07:26:06;11.10;99.90
56336;DHT22;42241;53.510;10.170;2022-09-27T07:28:33;11.10;99.90
56336;DHT22;42241;53.510;10.170;2022-09-27T07:30:59;11.10;99.90
56336;DHT22;42241;53.510;10.170;2022-09-27T07:33:24;11.10;99.90
56336;DHT22;42241;53.510;10.170;2022-09-27T07:35:50;11.10;99.90
56336;DHT22;42241;53.510;10.170;2022-09-27T07:38:16;11.10;99.90
56336;DHT22;42241;53.510;10.170;2022-09-27T07:40:41;11.20;99.90
56336;DHT22;42241;53.510;10.170;2022-09-27T07:43:07;11.20;99.90
56336;DHT22;42241;53.510;10.170;2022-09-27T07:45:34;11.20;99.90
56336;DHT22;42241;53.510;10.170;2022-09-27T07:47:59;11.30;99.90
56336;DHT22;42241;53.510;10.170;2022-09-27T07:50:25;11.30;99.90
56336;DHT22;42241;53.510;10.170;2022-09-27T07:52:51;11.30;99.90
56336;DHT22;42241;53.510;10.170;2022-09-27T07:55:17;11.30;99.90
56336;DHT22;42241;53.510;10.170;2022-09-27T07:57:44;11.40;99.90
56336;DHT22;42241;53.510;10.170;2022-09-27T08:00:11;11.50;99.90
56336;DHT22;42241;53.510;10.170;2022-09-27T08:02:36;11.60;99.90
56336;DHT22;42241;53.510;10.170;2022-09-27T08:05:02;11.70;99.90
56336;DHT22;42241;53.510;10.170;2022-09-27T08:07:30;11.70;99.90
56336;DHT22;42241;53.510;10.170;2022-09-27T08:09:57;11.80;99.90
56336;DHT22;42241;53.510;10.170;2022-09-27T08:12:22;11.90;99.90
56336;DHT22;42241;53.510;10.170;2022-09-27T08:14:48;12.00;99.90
56336;DHT22;42241;53.510;10.170;2022-09-27T08:17:14;12.00;99.90
56336;DHT22;42241;53.510;10.170;2022-09-27T08:19:39;11.90;99.90
56336;DHT22;42241;53.510;10.170;2022-09-27T08:22:06;12.00;99.90
56336;DHT22;42241;53.510;10.170;2022-09-27T08:24:31;12.10;99.90
56336;DHT22;42241;53.510;10.170;2022-09-27T08:26:57;12.10;99.90
56336;DHT22;42241;53.510;10.170;2022-09-27T08:29:23;12.10;99.90
56336;DHT22;42241;53.510;10.170;2022-09-27T08:31:51;12.20;99.90
56336;DHT22;42241;53.510;10.170;2022-09-27T08:34:18;12.20;99.90
56336;DHT22;42241;53.510;10.170;2022-09-27T08:36:43;12.20;99.90
56336;DHT22;42241;53.510;10.170;2022-09-27T08:39:09;12.10;99.90
56336;DHT22;42241;53.510;10.170;2022-09-27T08:41:36;12.10;99.90
56336;DHT22;42241;53.510;10.170;2022-09-27T08:49:28;11.90;99.90
56336;DHT22;42241;53.510;10.170;2022-09-27T08:51:55;11.80;99.90
56336;DHT22;42241;53.510;10.170;2022-09-27T08:54:23;11.80;99.90
56336;DHT22;42241;53.510;10.170;2022-09-27T08:56:51;11.80;99.90
56336;DHT22;42241;53.510;10.170;2022-09-27T08:59:24;11.80;99.90
56336;DHT22;42241;53.510;10.170;2022-09-27T09:01:52;11.70;99.90
56336;DHT22;42241;53.510;10.170;2022-09-27T09:04:39;11.70;99.90
56336;DHT22;42241;53.510;10.170;2022-09-27T09:18:37;11.70;99.90
56336;DHT22;42241;53.510;10.170;2022-09-27T09:26:14;11.50;99.90
56336;DHT22;42241;53.510;10.170;2022-09-27T09:28:52;11.40;99.90
56336;DHT22;42241;53.510;10.170;2022-09-27T09:34:22;11.20;99.90
56336;DHT22;42241;53.510;10.170;2022-09-27T09:36:49;11.10;99.90
56336;DHT22;42241;53.510;10.170;2022-09-27T09:39:18;11.20;99.90
56336;DHT22;42241;53.510;10.170;2022-09-27T09:41:56;11.30;99.90
56336;DHT22;42241;53.510;10.170;2022-09-27T09:44:26;11.40;99.90
56336;DHT22;42241;53.510;10.170;2022-09-27T09:46:55;11.50;99.90
56336;DHT22;42241;53.510;10.170;2022-09-27T09:49:23;11.60;99.90
56336;DHT22;42241;53.510;10.170;2022-09-27T09:51:51;11.70;99.90
56336;DHT22;42241;53.510;10.170;2022-09-27T09:56:47;11.70;99.90
56336;DHT22;42241;53.510;10.170;2022-09-27T10:01:44;12.00;99.90
56336;DHT22;42241;53.510;10.170;2022-09-27T10:04:14;12.10;99.90
56336;DHT22;42241;53.510;10.170;2022-09-27T10:06:40;12.20;99.90
56336;DHT22;42241;53.510;10.170;2022-09-27T10:09:05;12.10;99.90
56336;DHT22;42241;53.510;10.170;2022-09-27T10:11:39;12.10;99.90
56336;DHT22;42241;53.510;10.170;2022-09-27T10:14:08;12.10;99.90
56336;DHT22;42241;53.510;10.170;2022-09-27T10:16:34;12.10;99.90
56336;DHT22;42241;53.510;10.170;2022-09-27T10:19:00;12.10;99.90
56336;DHT22;42241;53.510;10.170;2022-09-27T10:21:28;12.10;99.90
56336;DHT22;42241;53.510;10.170;2022-09-27T10:24:00;12.10;99.90
56336;DHT22;42241;53.510;10.170;2022-09-27T10:26:28;12.10;99.90
56336;DHT22;42241;53.510;10.170;2022-09-27T10:28:54;12.20;99.90
56336;DHT22;42241;53.510;10.170;2022-09-27T10:31:20;12.30;99.90
56336;DHT22;42241;53.510;10.170;2022-09-27T10:33:56;12.20;99.90
56336;DHT22;42241;53.510;10.170;2022-09-27T10:36:32;12.10;99.90
56336;DHT22;42241;53.510;10.170;2022-09-27T10:39:00;12.30;99.90
56336;DHT22;42241;53.510;10.170;2022-09-27T10:44:16;12.40;99.90
56336;DHT22;42241;53.510;10.170;2022-09-27T10:46:43;12.40;99.90
56336;DHT22;42241;53.510;10.170;2022-09-27T10:49:10;12.20;99.90
56336;DHT22;42241;53.510;10.170;2022-09-27T10:51:42;12.20;99.90
56336;DHT22;42241;53.510;10.170;2022-09-27T10:54:21;12.30;99.90
56336;DHT22;42241;53.510;10.170;2022-09-27T10:56:53;12.40;99.90
56336;DHT22;42241;53.510;10.170;2022-09-27T10:59:19;12.60;99.90
56336;DHT22;42241;53.510;10.170;2022-09-27T11:01:45;12.60;99.90
56336;DHT22;42241;53.510;10.170;2022-09-27T11:04:18;12.70;99.90
56336;DHT22;42241;53.510;10.170;2022-09-27T11:06:45;12.70;99.90
56336;DHT22;42241;53.510;10.170;2022-09-27T11:09:23;12.80;99.90
56336;DHT22;42241;53.510;10.170;2022-09-27T11:12:04;12.80;99.90
56336;DHT22;42241;53.510;10.170;2022-09-27T11:14:29;12.90;99.90
56336;DHT22;42241;53.510;10.170;2022-09-27T11:24:55;13.30;99.90
56336;DHT22;42241;53.510;10.170;2022-09-27T11:27:35;13.50;99.90
56336;DHT22;42241;53.510;10.170;2022-09-27T11:30:04;13.60;99.90
56336;DHT22;42241;53.510;10.170;2022-09-27T11:38:08;13.60;99.90
56336;DHT22;42241;53.510;10.170;2022-09-27T11:46:20;13.40;99.90
56336;DHT22;42241;53.510;10.170;2022-09-27T11:59:02;15.70;99.90
56336;DHT22;42241;53.510;10.170;2022-09-27T12:06:27;17.50;99.90
56336;DHT22;42241;53.510;10.170;2022-09-27T12:09:04;17.20;99.90
56336;DHT22;42241;53.510;10.170;2022-09-27T12:11:40;16.50;99.90
56336;DHT22;42241;53.510;10.170;2022-09-27T12:14:13;16.40;99.90
56336;DHT22;42241;53.510;10.170;2022-09-27T12:16:40;16.20;99.90
56336;DHT22;42241;53.510;10.170;2022-09-27T12:19:10;16.00;99.90
56336;DHT22;42241;53.510;10.170;2022-09-27T12:21:37;15.60;99.90
56336;DHT22;42241;53.510;10.170;2022-09-27T12:24:02;15.30;99.90
56336;DHT22;42241;53.510;10.170;2022-09-27T12:26:37;15.10;99.90
56336;DHT22;42241;53.510;10.170;2022-09-27T12:31:44;15.20;99.90
56336;DHT22;42241;53.510;10.170;2022-09-27T12:34:18;15.20;99.90
56336;DHT22;42241;53.510;10.170;2022-09-27T12:37:03;15.20;99.90
56336;DHT22;42241;53.510;10.170;2022-09-27T12:39:37;15.20;99.90
56336;DHT22;42241;53.510;10.170;2022-09-27T12:42:10;15.10;99.90
56336;DHT22;42241;53.510;10.170;2022-09-27T12:44:37;15.10;99.90
56336;DHT22;42241;53.510;10.170;2022-09-27T12:52:10;14.90;99.90
56336;DHT22;42241;53.510;10.170;2022-09-27T12:57:17;14.40;99.90
56336;DHT22;42241;53.510;10.170;2022-09-27T13:10:22;14.30;99.90
56336;DHT22;42241;53.510;10.170;2022-09-27T13:12:54;14.00;99.90
56336;DHT22;42241;53.510;10.170;2022-09-27T13:17:47;13.60;99.90
56336;DHT22;42241;53.510;10.170;2022-09-27T13:22:57;13.30;99.90
56336;DHT22;42241;53.510;10.170;2022-09-27T13:36:52;13.30;99.90
56336;DHT22;42241;53.510;10.170;2022-09-27T13:49:36;13.10;99.90
56336;DHT22;42241;53.510;10.170;2022-09-27T13:52:03;13.00;99.90
56336;DHT22;42241;53.510;10.170;2022-09-27T13:56:58;12.80;99.90
56336;DHT22;42241;53.510;10.170;2022-09-27T14:04:55;12.80;99.90
56336;DHT22;42241;53.510;10.170;2022-09-27T14:07:23;12.80;99.90
56336;DHT22;42241;53.510;10.170;2022-09-27T14:09:51;12.90;99.90
56336;DHT22;42241;53.510;10.170;2022-09-27T14:12:18;12.90;99.90
56336;DHT22;42241;53.510;10.170;2022-09-27T14:14:45;13.00;99.90
56336;DHT22;42241;53.510;10.170;2022-09-27T14:17:11;13.20;99.90
56336;DHT22;42241;53.510;10.170;2022-09-27T14:19:38;13.20;99.90
56336;DHT22;42241;53.510;10.170;2022-09-27T14:22:11;13.10;99.90
56336;DHT22;42241;53.510;10.170;2022-09-27T14:27:04;12.80;99.90
56336;DHT22;42241;53.510;10.170;2022-09-27T14:29:30;12.70;99.90
56336;DHT22;42241;53.510;10.170;2022-09-27T14:32:03;12.70;99.90
56336;DHT22;42241;53.510;10.170;2022-09-27T14:34:29;12.60;99.90
56336;DHT22;42241;53.510;10.170;2022-09-27T14:36:55;12.70;99.90
56336;DHT22;42241;53.510;10.170;2022-09-27T14:40:03;12.70;99.90
56336;DHT22;42241;53.510;10.170;2022-09-27T14:42:33;12.70;99.90
56336;DHT22;42241;53.510;10.170;2022-09-27T14:45:05;12.70;99.90
56336;DHT22;42241;53.510;10.170;2022-09-27T14:47:31;12.60;99.90
56336;DHT22;42241;53.510;10.170;2022-09-27T14:50:01;12.50;99.90
56336;DHT22;42241;53.510;10.170;2022-09-27T14:52:32;12.50;99.90
56336;DHT22;42241;53.510;10.170;2022-09-27T14:55:00;12.50;99.90
56336;DHT22;42241;53.510;10.170;2022-09-27T14:57:27;12.60;99.90
56336;DHT22;42241;53.510;10.170;2022-09-27T14:59:54;12.60;99.90
56336;DHT22;42241;53.510;10.170;2022-09-27T15:02:21;12.70;99.90
56336;DHT22;42241;53.510;10.170;2022-09-27T15:04:50;12.70;99.90
56336;DHT22;42241;53.510;10.170;2022-09-27T15:07:16;12.70;99.90
56336;DHT22;42241;53.510;10.170;2022-09-27T15:09:42;12.70;99.90
56336;DHT22;42241;53.510;10.170;2022-09-27T15:12:10;12.70;99.90
56336;DHT22;42241;53.510;10.170;2022-09-27T15:14:36;12.70;99.90
56336;DHT22;42241;53.510;10.170;2022-09-27T15:17:05;12.60;99.90
56336;DHT22;42241;53.510;10.170;2022-09-27T15:19:31;12.60;99.90
56336;DHT22;42241;53.510;10.170;2022-09-27T15:22:20;12.50;99.90
56336;DHT22;42241;53.510;10.170;2022-09-27T15:24:43;12.50;99.90
56336;DHT22;42241;53.510;10.170;2022-09-27T15:27:19;12.40;99.90
56336;DHT22;42241;53.510;10.170;2022-09-27T15:29:46;12.40;99.90
56336;DHT22;42241;53.510;10.170;2022-09-27T15:32:13;12.30;99.90
56336;DHT22;42241;53.510;10.170;2022-09-27T15:34:40;12.30;99.90
56336;DHT22;42241;53.510;10.170;2022-09-27T15:37:05;12.20;99.90
56336;DHT22;42241;53.510;10.170;2022-09-27T15:39:35;12.20;99.90
56336;DHT22;42241;53.510;10.170;2022-09-27T15:42:11;12.00;99.90
56336;DHT22;42241;53.510;10.170;2022-09-27T15:50:30;11.80;99.90
56336;DHT22;42241;53.510;10.170;2022-09-27T15:52:51;11.80;99.90
56336;DHT22;42241;53.510;10.170;2022-09-27T15:55:18;11.70;99.90
56336;DHT22;42241;53.510;10.170;2022-09-27T15:57:45;11.70;99.90
56336;DHT22;42241;53.510;10.170;2022-09-27T16:00:12;11.70;99.90
56336;DHT22;42241;53.510;10.170;2022-09-27T16:02:38;11.80;99.90
56336;DHT22;42241;53.510;10.170;2022-09-27T16:05:04;11.80;99.90
56336;DHT22;42241;53.510;10.170;2022-09-27T16:07:29;11.90;99.90
56336;DHT22;42241;53.510;10.170;2022-09-27T16:09:55;11.80;99.90
56336;DHT22;42241;53.510;10.170;2022-09-27T16:12:21;11.80;99.90
56336;DHT22;42241;53.510;10.170;2022-09-27T16:14:49;11.70;99.90
56336;DHT22;42241;53.510;10.170;2022-09-27T16:17:15;11.80;99.90
56336;DHT22;42241;53.510;10.170;2022-09-27T16:19:40;11.70;99.90
56336;DHT22;42241;53.510;10.170;2022-09-27T16:22:06;11.70;99.90
56336;DHT22;42241;53.510;10.170;2022-09-27T16:24:32;11.70;99.90
56336;DHT22;42241;53.510;10.170;2022-09-27T16:26:57;11.60;99.90
56336;DHT22;42241;53.510;10.170;2022-09-27T16:29:23;11.60;99.90
56336;DHT22;42241;53.510;10.170;2022-09-27T16:31:49;11.60;99.90
56336;DHT22;42241;53.510;10.170;2022-09-27T16:34:15;11.60;99.90
56336;DHT22;42241;53.510;10.170;2022-09-27T16:36:41;11.60;99.90
56336;DHT22;42241;53.510;10.170;2022-09-27T16:39:08;11.60;99.90
56336;DHT22;42241;53.510;10.170;2022-09-27T16:41:34;11.60;99.90
56336;DHT22;42241;53.510;10.170;2022-09-27T16:44:11;11.60;99.90
56336;DHT22;42241;53.510;10.170;2022-09-27T16:46:40;11.60;99.90
56336;DHT22;42241;53.510;10.170;2022-09-27T16:49:06;11.60;99.90
56336;DHT22;42241;53.510;10.170;2022-09-27T16:51:51;11.60;99.90
56336;DHT22;42241;53.510;10.170;2022-09-27T16:54:27;11.60;99.90
56336;DHT22;42241;53.510;10.170;2022-09-27T16:56:54;11.60;99.90
56336;DHT22;42241;53.510;10.170;2022-09-27T16:59:19;11.60;99.90
56336;DHT22;42241;53.510;10.170;2022-09-27T17:01:45;11.50;99.90
56336;DHT22;42241;53.510;10.170;2022-09-27T17:04:12;11.50;99.90
56336;DHT22;42241;53.510;10.170;2022-09-27T17:06:38;11.50;99.90
56336;DHT22;42241;53.510;10.170;2022-09-27T17:09:04;11.50;99.90
56336;DHT22;42241;53.510;10.170;2022-09-27T17:11:30;11.50;99.90
56336;DHT22;42241;53.510;10.170;2022-09-27T17:13:56;11.50;99.90
56336;DHT22;42241;53.510;10.170;2022-09-27T17:16:22;11.50;99.90
56336;DHT22;42241;53.510;10.170;2022-09-27T17:18:48;11.50;99.90
56336;DHT22;42241;53.510;10.170;2022-09-27T17:21:14;11.50;99.90
56336;DHT22;42241;53.510;10.170;2022-09-27T17:23:40;11.50;99.90
56336;DHT22;42241;53.510;10.170;2022-09-27T17:26:18;11.50;99.90
56336;DHT22;42241;53.510;10.170;2022-09-27T17:28:44;11.40;99.90
56336;DHT22;42241;53.510;10.170;2022-09-27T17:31:11;11.40;99.90
56336;DHT22;42241;53.510;10.170;2022-09-27T17:33:40;11.30;99.90
56336;DHT22;42241;53.510;10.170;2022-09-27T17:36:08;11.20;99.90
56336;DHT22;42241;53.510;10.170;2022-09-27T17:38:34;11.20;99.90
56336;DHT22;42241;53.510;10.170;2022-09-27T17:41:03;11.20;99.90
56336;DHT22;42241;53.510;10.170;2022-09-27T17:43:29;11.20;99.90
56336;DHT22;42241;53.510;10.170;2022-09-27T17:46:05;11.20;99.90
56336;DHT22;42241;53.510;10.170;2022-09-27T17:48:30;11.30;99.90
56336;DHT22;42241;53.510;10.170;2022-09-27T17:51:15;11.20;99.90
56336;DHT22;42241;53.510;10.170;2022-09-27T17:53:43;11.20;99.90
56336;DHT22;42241;53.510;10.170;2022-09-27T17:56:09;11.30;99.90
56336;DHT22;42241;53.510;10.170;2022-09-27T17:58:36;11.20;99.90
56336;DHT22;42241;53.510;10.170;2022-09-27T18:01:02;11.20;99.90
56336;DHT22;42241;53.510;10.170;2022-09-27T18:03:28;11.20;99.90
56336;DHT22;42241;53.510;10.170;2022-09-27T18:05:54;11.20;99.90
56336;DHT22;42241;53.510;10.170;2022-09-27T18:08:19;11.10;99.90
56336;DHT22;42241;53.510;10.170;2022-09-27T18:10:45;11.10;99.90
56336;DHT22;42241;53.510;10.170;2022-09-27T18:13:11;11.10;99.90
56336;DHT22;42241;53.510;10.170;2022-09-27T18:15:37;11.10;99.90
56336;DHT22;42241;53.510;10.170;2022-09-27T18:18:03;11.10;99.90
56336;DHT22;42241;53.510;10.170;2022-09-27T18:20:33;11.10;99.90
56336;DHT22;42241;53.510;10.170;2022-09-27T18:22:58;11.00;99.90